sensor_id;sensor_type;location;lat;lon;timestamp;P1;durP1;ratioP1;P2;durP2;ratioP2
54923;SDS011;40825;52.270;20.984;2024-01-10T00:02:03;63.50;;;24.80;;
54923;SDS011;40825;52.270;20.984;2024-01-10T00:04:29;63.70;;;21.70;;
54923;SDS011;40825;52.270;20.984;2024-01-10T00:06:54;58.70;;;22.60;;
54923;SDS011;40825;52.270;20.984;2024-01-10T00:09:20;61.20;;;23.10;;
54923;SDS011;40825;52.270;20.984;2024-01-10T00:11:45;63.50;;;25.90;;
54923;SDS011;40825;52.270;20.984;2024-01-10T00:14:11;58.90;;;23.30;;
54923;SDS011;40825;52.270;20.984;2024-01-10T00:16:37;60.80;;;23.50;;
54923;SDS011;40825;52.270;20.984;2024-01-10T00:19:02;62.70;;;26.50;;
54923;SDS011;40825;52.270;20.984;2024-01-10T00:21:28;56.60;;;22.80;;
54923;SDS011;40825;52.270;20.984;2024-01-10T00:23:54;66.10;;;23.30;;
54923;SDS011;40825;52.270;20.984;2024-01-10T00:26:20;63.70;;;23.70;;
54923;SDS011;40825;52.270;20.984;2024-01-10T00:28:45;63.50;;;23.70;;
54923;SDS011;40825;52.270;20.984;2024-01-10T00:31:11;59.90;;;23.60;;
54923;SDS011;40825;52.270;20.984;2024-01-10T00:33:38;60.50;;;22.20;;
54923;SDS011;40825;52.270;20.984;2024-01-10T00:36:04;64.20;;;22.10;;
54923;SDS011;40825;52.270;20.984;2024-01-10T00:38:31;56.60;;;20.90;;
54923;SDS011;40825;52.270;20.984;2024-01-10T00:40:56;60.80;;;22.30;;
54923;SDS011;40825;52.270;20.984;2024-01-10T00:43:22;61.90;;;24.50;;
54923;SDS011;40825;52.270;20.984;2024-01-10T00:45:48;54.40;;;21.20;;
54923;SDS011;40825;52.270;20.984;2024-01-10T00:48:13;56.10;;;21.50;;
54923;SDS011;40825;52.270;20.984;2024-01-10T00:50:39;60.80;;;22.00;;
54923;SDS011;40825;52.270;20.984;2024-01-10T00:53:04;55.30;;;21.00;;
54923;SDS011;40825;52.270;20.984;2024-01-10T00:55:30;49.20;;;18.40;;
54923;SDS011;40825;52.270;20.984;2024-01-10T00:57:55;56.50;;;20.70;;
54923;SDS011;40825;52.270;20.984;2024-01-10T01:00:21;55.20;;;21.20;;
54923;SDS011;40825;52.270;20.984;2024-01-10T01:02:46;63.50;;;22.10;;
54923;SDS011;40825;52.270;20.984;2024-01-10T01:05:12;55.80;;;21.30;;
54923;SDS011;40825;52.270;20.984;2024-01-10T01:07:38;59.20;;;22.50;;
54923;SDS011;40825;52.270;20.984;2024-01-10T01:10:04;57.00;;;20.70;;
54923;SDS011;40825;52.270;20.984;2024-01-10T01:12:30;59.80;;;22.40;;
54923;SDS011;40825;52.270;20.984;2024-01-10T01:14:56;58.50;;;21.60;;
54923;SDS011;40825;52.270;20.984;2024-01-10T01:17:22;59.60;;;22.70;;
54923;SDS011;40825;52.270;20.984;2024-01-10T01:19:47;66.50;;;23.30;;
54923;SDS011;40825;52.270;20.984;2024-01-10T01:22:12;50.90;;;17.80;;
54923;SDS011;40825;52.270;20.984;2024-01-10T01:24:38;65.00;;;23.10;;
54923;SDS011;40825;52.270;20.984;2024-01-10T01:27:04;54.90;;;22.40;;
54923;SDS011;40825;52.270;20.984;2024-01-10T01:29:29;45.10;;;23.10;;
54923;SDS011;40825;52.270;20.984;2024-01-10T01:31:55;53.60;;;20.80;;
54923;SDS011;40825;52.270;20.984;2024-01-10T01:34:21;57.60;;;22.30;;
54923;SDS011;40825;52.270;20.984;2024-01-10T01:36:47;61.20;;;23.60;;
54923;SDS011;40825;52.270;20.984;2024-01-10T01:39:13;66.10;;;22.10;;
54923;SDS011;40825;52.270;20.984;2024-01-10T01:41:39;62.60;;;24.40;;
54923;SDS011;40825;52.270;20.984;2024-01-10T01:44:05;63.10;;;23.50;;
54923;SDS011;40825;52.270;20.984;2024-01-10T01:46:31;58.50;;;24.00;;
54923;SDS011;40825;52.270;20.984;2024-01-10T01:48:58;61.90;;;23.00;;
54923;SDS011;40825;52.270;20.984;2024-01-10T01:51:24;59.90;;;23.60;;
54923;SDS011;40825;52.270;20.984;2024-01-10T01:53:52;54.90;;;24.90;;
54923;SDS011;40825;52.270;20.984;2024-01-10T01:56:18;59.20;;;23.70;;
54923;SDS011;40825;52.270;20.984;2024-01-10T01:58:44;65.90;;;23.90;;
54923;SDS011;40825;52.270;20.984;2024-01-10T02:01:14;60.30;;;24.40;;
54923;SDS011;40825;52.270;20.984;2024-01-10T02:03:40;66.00;;;23.00;;
54923;SDS011;40825;52.270;20.984;2024-01-10T02:06:06;64.80;;;21.30;;
54923;SDS011;40825;52.270;20.984;2024-01-10T02:08:32;56.20;;;26.00;;
54923;SDS011;40825;52.270;20.984;2024-01-10T02:10:59;61.80;;;23.00;;
54923;SDS011;40825;52.270;20.984;2024-01-10T02:13:26;61.40;;;23.60;;
54923;SDS011;40825;52.270;20.984;2024-01-10T02:15:52;67.60;;;25.80;;
54923;SDS011;40825;52.270;20.984;2024-01-10T02:18:17;60.90;;;25.30;;
54923;SDS011;40825;52.270;20.984;2024-01-10T02:20:43;65.00;;;24.00;;
54923;SDS011;40825;52.270;20.984;2024-01-10T02:23:10;60.10;;;22.30;;
54923;SDS011;40825;52.270;20.984;2024-01-10T02:25:36;58.80;;;25.10;;
54923;SDS011;40825;52.270;20.984;2024-01-10T02:28:02;59.40;;;23.00;;
54923;SDS011;40825;52.270;20.984;2024-01-10T02:30:28;61.10;;;21.20;;
54923;SDS011;40825;52.270;20.984;2024-01-10T02:32:54;61.50;;;23.10;;
54923;SDS011;40825;52.270;20.984;2024-01-10T02:35:20;57.30;;;21.90;;
54923;SDS011;40825;52.270;20.984;2024-01-10T02:37:45;61.90;;;23.90;;
54923;SDS011;40825;52.270;20.984;2024-01-10T02:40:11;44.10;;;18.60;;
54923;SDS011;40825;52.270;20.984;2024-01-10T02:42:37;55.50;;;22.30;;
54923;SDS011;40825;52.270;20.984;2024-01-10T02:45:03;67.40;;;23.30;;
54923;SDS011;40825;52.270;20.984;2024-01-10T02:47:29;60.70;;;20.60;;
54923;SDS011;40825;52.270;20.984;2024-01-10T02:49:55;62.50;;;23.90;;
54923;SDS011;40825;52.270;20.984;2024-01-10T02:52:20;68.10;;;25.80;;
54923;SDS011;40825;52.270;20.984;2024-01-10T02:54:46;64.20;;;24.30;;
54923;SDS011;40825;52.270;20.984;2024-01-10T02:57:12;61.70;;;24.10;;
54923;SDS011;40825;52.270;20.984;2024-01-10T02:59:38;62.40;;;23.90;;
54923;SDS011;40825;52.270;20.984;2024-01-10T03:02:04;66.90;;;24.10;;
54923;SDS011;40825;52.270;20.984;2024-01-10T03:04:29;59.00;;;24.10;;
54923;SDS011;40825;52.270;20.984;2024-01-10T03:06:55;64.90;;;22.80;;
54923;SDS011;40825;52.270;20.984;2024-01-10T03:09:22;50.80;;;20.70;;
54923;SDS011;40825;52.270;20.984;2024-01-10T03:11:48;68.20;;;23.90;;
54923;SDS011;40825;52.270;20.984;2024-01-10T03:14:16;53.80;;;21.80;;
54923;SDS011;40825;52.270;20.984;2024-01-10T03:16:41;55.20;;;21.70;;
54923;SDS011;40825;52.270;20.984;2024-01-10T03:19:07;60.50;;;23.30;;
54923;SDS011;40825;52.270;20.984;2024-01-10T03:21:32;59.50;;;24.10;;
54923;SDS011;40825;52.270;20.984;2024-01-10T03:23:58;55.90;;;22.30;;
54923;SDS011;40825;52.270;20.984;2024-01-10T03:26:26;68.90;;;23.60;;
54923;SDS011;40825;52.270;20.984;2024-01-10T03:28:52;59.80;;;22.40;;
54923;SDS011;40825;52.270;20.984;2024-01-10T03:31:18;77.30;;;26.10;;
54923;SDS011;40825;52.270;20.984;2024-01-10T03:33:44;66.50;;;27.00;;
54923;SDS011;40825;52.270;20.984;2024-01-10T03:36:13;64.80;;;23.60;;
54923;SDS011;40825;52.270;20.984;2024-01-10T03:38:41;58.10;;;24.50;;
54923;SDS011;40825;52.270;20.984;2024-01-10T03:41:07;51.00;;;22.30;;
54923;SDS011;40825;52.270;20.984;2024-01-10T03:43:32;63.60;;;23.90;;
54923;SDS011;40825;52.270;20.984;2024-01-10T03:45:58;72.60;;;28.50;;
54923;SDS011;40825;52.270;20.984;2024-01-10T03:48:24;69.60;;;25.90;;
54923;SDS011;40825;52.270;20.984;2024-01-10T03:50:50;58.40;;;24.90;;
54923;SDS011;40825;52.270;20.984;2024-01-10T03:53:15;68.20;;;24.40;;
54923;SDS011;40825;52.270;20.984;2024-01-10T03:55:41;55.40;;;22.30;;
54923;SDS011;40825;52.270;20.984;2024-01-10T03:58:06;64.30;;;24.30;;
54923;SDS011;40825;52.270;20.984;2024-01-10T04:00:32;62.50;;;25.60;;
54923;SDS011;40825;52.270;20.984;2024-01-10T04:02:58;57.90;;;24.20;;
54923;SDS011;40825;52.270;20.984;2024-01-10T04:05:24;70.70;;;26.30;;
54923;SDS011;40825;52.270;20.984;2024-01-10T04:07:50;67.80;;;25.40;;
54923;SDS011;40825;52.270;20.984;2024-01-10T04:10:17;60.00;;;24.30;;
54923;SDS011;40825;52.270;20.984;2024-01-10T04:12:43;58.80;;;24.20;;
54923;SDS011;40825;52.270;20.984;2024-01-10T04:15:09;66.40;;;24.80;;
54923;SDS011;40825;52.270;20.984;2024-01-10T04:17:36;61.60;;;25.00;;
54923;SDS011;40825;52.270;20.984;2024-01-10T04:20:02;54.70;;;22.60;;
54923;SDS011;40825;52.270;20.984;2024-01-10T04:22:28;65.10;;;25.50;;
54923;SDS011;40825;52.270;20.984;2024-01-10T04:24:53;56.00;;;21.00;;
54923;SDS011;40825;52.270;20.984;2024-01-10T04:27:21;51.30;;;18.00;;
54923;SDS011;40825;52.270;20.984;2024-01-10T04:29:46;66.10;;;24.80;;
54923;SDS011;40825;52.270;20.984;2024-01-10T04:32:13;66.80;;;23.60;;
54923;SDS011;40825;52.270;20.984;2024-01-10T04:34:38;57.20;;;22.40;;
54923;SDS011;40825;52.270;20.984;2024-01-10T04:37:04;63.40;;;25.60;;
54923;SDS011;40825;52.270;20.984;2024-01-10T04:39:29;65.40;;;25.70;;
54923;SDS011;40825;52.270;20.984;2024-01-10T04:41:55;64.10;;;25.70;;
54923;SDS011;40825;52.270;20.984;2024-01-10T04:44:20;68.20;;;24.80;;
54923;SDS011;40825;52.270;20.984;2024-01-10T04:46:46;61.50;;;23.80;;
54923;SDS011;40825;52.270;20.984;2024-01-10T04:49:11;66.20;;;23.80;;
54923;SDS011;40825;52.270;20.984;2024-01-10T04:51:37;65.20;;;27.10;;
54923;SDS011;40825;52.270;20.984;2024-01-10T04:54:03;65.20;;;26.00;;
54923;SDS011;40825;52.270;20.984;2024-01-10T04:56:28;60.90;;;23.40;;
54923;SDS011;40825;52.270;20.984;2024-01-10T04:58:54;71.50;;;25.30;;
54923;SDS011;40825;52.270;20.984;2024-01-10T05:01:20;66.80;;;25.50;;
54923;SDS011;40825;52.270;20.984;2024-01-10T05:03:45;63.20;;;24.30;;
54923;SDS011;40825;52.270;20.984;2024-01-10T05:06:11;72.80;;;27.00;;
54923;SDS011;40825;52.270;20.984;2024-01-10T05:08:36;70.50;;;26.00;;
54923;SDS011;40825;52.270;20.984;2024-01-10T05:11:02;64.30;;;24.20;;
54923;SDS011;40825;52.270;20.984;2024-01-10T05:13:28;69.00;;;27.10;;
54923;SDS011;40825;52.270;20.984;2024-01-10T05:15:54;62.60;;;26.20;;
54923;SDS011;40825;52.270;20.984;2024-01-10T05:18:20;56.10;;;24.70;;
54923;SDS011;40825;52.270;20.984;2024-01-10T05:20:46;64.40;;;27.20;;
54923;SDS011;40825;52.270;20.984;2024-01-10T05:23:12;58.60;;;23.00;;
54923;SDS011;40825;52.270;20.984;2024-01-10T05:25:38;55.50;;;21.90;;
54923;SDS011;40825;52.270;20.984;2024-01-10T05:28:03;52.40;;;16.60;;
54923;SDS011;40825;52.270;20.984;2024-01-10T05:30:29;55.90;;;22.30;;
54923;SDS011;40825;52.270;20.984;2024-01-10T05:32:55;72.00;;;27.60;;
54923;SDS011;40825;52.270;20.984;2024-01-10T05:35:24;69.80;;;26.80;;
54923;SDS011;40825;52.270;20.984;2024-01-10T05:37:53;74.20;;;28.10;;
54923;SDS011;40825;52.270;20.984;2024-01-10T05:40:22;63.90;;;25.50;;
54923;SDS011;40825;52.270;20.984;2024-01-10T05:42:48;62.80;;;24.90;;
54923;SDS011;40825;52.270;20.984;2024-01-10T05:45:14;61.30;;;24.70;;
54923;SDS011;40825;52.270;20.984;2024-01-10T05:47:43;72.60;;;27.60;;
54923;SDS011;40825;52.270;20.984;2024-01-10T05:50:08;68.20;;;27.50;;
54923;SDS011;40825;52.270;20.984;2024-01-10T05:52:34;61.80;;;25.70;;
54923;SDS011;40825;52.270;20.984;2024-01-10T05:55:00;61.90;;;23.70;;
54923;SDS011;40825;52.270;20.984;2024-01-10T05:57:28;71.90;;;26.70;;
54923;SDS011;40825;52.270;20.984;2024-01-10T05:59:55;67.10;;;27.70;;
54923;SDS011;40825;52.270;20.984;2024-01-10T06:02:22;67.80;;;27.20;;
54923;SDS011;40825;52.270;20.984;2024-01-10T06:04:49;69.50;;;26.30;;
54923;SDS011;40825;52.270;20.984;2024-01-10T06:07:15;65.80;;;27.10;;
54923;SDS011;40825;52.270;20.984;2024-01-10T06:09:41;78.10;;;27.80;;
54923;SDS011;40825;52.270;20.984;2024-01-10T06:12:09;73.00;;;26.00;;
54923;SDS011;40825;52.270;20.984;2024-01-10T06:14:34;67.60;;;25.90;;
54923;SDS011;40825;52.270;20.984;2024-01-10T06:17:01;73.20;;;27.20;;
54923;SDS011;40825;52.270;20.984;2024-01-10T06:19:29;56.40;;;25.00;;
54923;SDS011;40825;52.270;20.984;2024-01-10T06:21:56;65.00;;;25.30;;
54923;SDS011;40825;52.270;20.984;2024-01-10T06:24:22;68.90;;;26.60;;
54923;SDS011;40825;52.270;20.984;2024-01-10T06:26:48;59.90;;;25.30;;
54923;SDS011;40825;52.270;20.984;2024-01-10T06:29:15;64.20;;;25.80;;
54923;SDS011;40825;52.270;20.984;2024-01-10T06:31:41;69.20;;;26.50;;
54923;SDS011;40825;52.270;20.984;2024-01-10T06:34:07;70.90;;;29.80;;
54923;SDS011;40825;52.270;20.984;2024-01-10T06:36:33;67.50;;;25.70;;
54923;SDS011;40825;52.270;20.984;2024-01-10T06:38:59;65.40;;;26.30;;
54923;SDS011;40825;52.270;20.984;2024-01-10T06:41:25;63.00;;;26.20;;
54923;SDS011;40825;52.270;20.984;2024-01-10T06:43:51;63.10;;;25.20;;
54923;SDS011;40825;52.270;20.984;2024-01-10T06:46:18;57.30;;;22.60;;
54923;SDS011;40825;52.270;20.984;2024-01-10T06:48:43;70.00;;;25.00;;
54923;SDS011;40825;52.270;20.984;2024-01-10T06:51:09;56.00;;;22.80;;
54923;SDS011;40825;52.270;20.984;2024-01-10T06:53:38;65.20;;;27.50;;
54923;SDS011;40825;52.270;20.984;2024-01-10T06:56:05;73.60;;;26.40;;
54923;SDS011;40825;52.270;20.984;2024-01-10T06:58:31;82.90;;;29.00;;
54923;SDS011;40825;52.270;20.984;2024-01-10T07:00:56;71.70;;;31.20;;
54923;SDS011;40825;52.270;20.984;2024-01-10T07:03:22;71.20;;;27.30;;
54923;SDS011;40825;52.270;20.984;2024-01-10T07:05:47;67.30;;;26.40;;
54923;SDS011;40825;52.270;20.984;2024-01-10T07:08:14;74.60;;;30.10;;
54923;SDS011;40825;52.270;20.984;2024-01-10T07:10:39;74.70;;;29.20;;
54923;SDS011;40825;52.270;20.984;2024-01-10T07:13:05;72.20;;;27.60;;
54923;SDS011;40825;52.270;20.984;2024-01-10T07:15:30;77.30;;;28.40;;
54923;SDS011;40825;52.270;20.984;2024-01-10T07:17:56;62.60;;;25.80;;
54923;SDS011;40825;52.270;20.984;2024-01-10T07:20:21;78.30;;;32.10;;
54923;SDS011;40825;52.270;20.984;2024-01-10T07:22:49;83.40;;;28.60;;
54923;SDS011;40825;52.270;20.984;2024-01-10T07:25:16;73.30;;;29.10;;
54923;SDS011;40825;52.270;20.984;2024-01-10T07:27:45;63.90;;;24.40;;
54923;SDS011;40825;52.270;20.984;2024-01-10T07:30:11;70.40;;;28.50;;
54923;SDS011;40825;52.270;20.984;2024-01-10T07:32:41;51.30;;;23.30;;
54923;SDS011;40825;52.270;20.984;2024-01-10T07:37:35;63.70;;;26.70;;
54923;SDS011;40825;52.270;20.984;2024-01-10T07:40:02;64.70;;;29.30;;
54923;SDS011;40825;52.270;20.984;2024-01-10T07:42:30;74.20;;;29.80;;
54923;SDS011;40825;52.270;20.984;2024-01-10T07:44:56;57.00;;;21.40;;
54923;SDS011;40825;52.270;20.984;2024-01-10T07:47:22;62.00;;;26.50;;
54923;SDS011;40825;52.270;20.984;2024-01-10T07:49:47;70.00;;;27.60;;
54923;SDS011;40825;52.270;20.984;2024-01-10T07:52:13;65.00;;;29.80;;
54923;SDS011;40825;52.270;20.984;2024-01-10T07:54:38;69.70;;;30.30;;
54923;SDS011;40825;52.270;20.984;2024-01-10T07:57:04;75.80;;;30.10;;
54923;SDS011;40825;52.270;20.984;2024-01-10T07:59:29;80.80;;;31.60;;
54923;SDS011;40825;52.270;20.984;2024-01-10T08:01:55;67.60;;;26.50;;
54923;SDS011;40825;52.270;20.984;2024-01-10T08:04:21;78.80;;;28.20;;
54923;SDS011;40825;52.270;20.984;2024-01-10T08:06:48;82.20;;;32.80;;
54923;SDS011;40825;52.270;20.984;2024-01-10T08:09:13;77.00;;;30.70;;
54923;SDS011;40825;52.270;20.984;2024-01-10T08:11:39;64.90;;;24.60;;
54923;SDS011;40825;52.270;20.984;2024-01-10T08:14:05;69.40;;;28.00;;
54923;SDS011;40825;52.270;20.984;2024-01-10T08:16:30;68.70;;;26.10;;
54923;SDS011;40825;52.270;20.984;2024-01-10T08:18:57;74.90;;;27.00;;
54923;SDS011;40825;52.270;20.984;2024-01-10T08:21:24;75.60;;;29.40;;
54923;SDS011;40825;52.270;20.984;2024-01-10T08:23:50;69.80;;;26.40;;
54923;SDS011;40825;52.270;20.984;2024-01-10T08:26:16;74.90;;;28.10;;
54923;SDS011;40825;52.270;20.984;2024-01-10T08:28:41;70.90;;;28.30;;
54923;SDS011;40825;52.270;20.984;2024-01-10T08:31:08;58.60;;;24.00;;
54923;SDS011;40825;52.270;20.984;2024-01-10T08:33:33;72.90;;;28.00;;
54923;SDS011;40825;52.270;20.984;2024-01-10T08:35:59;73.70;;;30.70;;
54923;SDS011;40825;52.270;20.984;2024-01-10T08:38:24;71.30;;;27.70;;
54923;SDS011;40825;52.270;20.984;2024-01-10T08:40:50;71.30;;;27.00;;
54923;SDS011;40825;52.270;20.984;2024-01-10T08:43:15;55.20;;;22.30;;
54923;SDS011;40825;52.270;20.984;2024-01-10T08:45:45;74.80;;;30.20;;
54923;SDS011;40825;52.270;20.984;2024-01-10T08:48:11;78.80;;;27.20;;
54923;SDS011;40825;52.270;20.984;2024-01-10T08:50:38;65.10;;;27.50;;
54923;SDS011;40825;52.270;20.984;2024-01-10T08:53:04;68.10;;;29.70;;
54923;SDS011;40825;52.270;20.984;2024-01-10T08:55:31;66.10;;;27.20;;
54923;SDS011;40825;52.270;20.984;2024-01-10T08:57:57;68.30;;;29.70;;
54923;SDS011;40825;52.270;20.984;2024-01-10T09:00:23;70.90;;;29.30;;
54923;SDS011;40825;52.270;20.984;2024-01-10T09:02:49;67.10;;;26.10;;
54923;SDS011;40825;52.270;20.984;2024-01-10T09:07:44;67.40;;;26.70;;
54923;SDS011;40825;52.270;20.984;2024-01-10T09:10:10;53.50;;;23.50;;
54923;SDS011;40825;52.270;20.984;2024-01-10T09:12:36;61.80;;;25.70;;
54923;SDS011;40825;52.270;20.984;2024-01-10T09:15:02;69.60;;;27.30;;
54923;SDS011;40825;52.270;20.984;2024-01-10T09:17:28;61.30;;;24.30;;
54923;SDS011;40825;52.270;20.984;2024-01-10T09:19:53;60.80;;;25.80;;
54923;SDS011;40825;52.270;20.984;2024-01-10T09:22:19;57.20;;;23.90;;
54923;SDS011;40825;52.270;20.984;2024-01-10T09:24:45;62.50;;;27.20;;
54923;SDS011;40825;52.270;20.984;2024-01-10T09:27:11;54.00;;;24.20;;
54923;SDS011;40825;52.270;20.984;2024-01-10T09:29:36;62.90;;;25.30;;
54923;SDS011;40825;52.270;20.984;2024-01-10T09:32:02;66.40;;;27.30;;
54923;SDS011;40825;52.270;20.984;2024-01-10T09:34:28;65.60;;;26.30;;
54923;SDS011;40825;52.270;20.984;2024-01-10T09:36:54;64.00;;;25.60;;
54923;SDS011;40825;52.270;20.984;2024-01-10T09:39:20;61.10;;;25.00;;
54923;SDS011;40825;52.270;20.984;2024-01-10T09:41:47;57.40;;;25.10;;
54923;SDS011;40825;52.270;20.984;2024-01-10T09:44:15;48.80;;;20.50;;
54923;SDS011;40825;52.270;20.984;2024-01-10T09:46:48;60.60;;;26.20;;
54923;SDS011;40825;52.270;20.984;2024-01-10T09:49:17;56.50;;;24.60;;
54923;SDS011;40825;52.270;20.984;2024-01-10T09:51:49;64.00;;;24.20;;
54923;SDS011;40825;52.270;20.984;2024-01-10T09:54:15;58.50;;;24.10;;
54923;SDS011;40825;52.270;20.984;2024-01-10T09:56:41;51.40;;;21.30;;
54923;SDS011;40825;52.270;20.984;2024-01-10T09:59:07;39.00;;;16.60;;
54923;SDS011;40825;52.270;20.984;2024-01-10T10:01:36;53.20;;;23.90;;
54923;SDS011;40825;52.270;20.984;2024-01-10T10:06:33;55.40;;;18.70;;
54923;SDS011;40825;52.270;20.984;2024-01-10T10:08:59;57.90;;;23.20;;
54923;SDS011;40825;52.270;20.984;2024-01-10T10:11:25;65.20;;;25.00;;
54923;SDS011;40825;52.270;20.984;2024-01-10T10:13:51;56.60;;;23.90;;
54923;SDS011;40825;52.270;20.984;2024-01-10T10:16:24;64.00;;;25.30;;
54923;SDS011;40825;52.270;20.984;2024-01-10T10:18:51;56.50;;;22.70;;
54923;SDS011;40825;52.270;20.984;2024-01-10T10:21:23;66.40;;;25.40;;
54923;SDS011;40825;52.270;20.984;2024-01-10T10:23:57;58.20;;;22.90;;
54923;SDS011;40825;52.270;20.984;2024-01-10T10:26:27;55.10;;;23.00;;
54923;SDS011;40825;52.270;20.984;2024-01-10T10:28:54;51.00;;;20.50;;
54923;SDS011;40825;52.270;20.984;2024-01-10T10:31:21;39.90;;;15.90;;
54923;SDS011;40825;52.270;20.984;2024-01-10T10:33:48;46.30;;;19.30;;
54923;SDS011;40825;52.270;20.984;2024-01-10T10:36:18;43.00;;;17.20;;
54923;SDS011;40825;52.270;20.984;2024-01-10T10:38:48;44.50;;;18.10;;
54923;SDS011;40825;52.270;20.984;2024-01-10T10:41:14;49.80;;;19.80;;
54923;SDS011;40825;52.270;20.984;2024-01-10T10:43:43;40.10;;;16.60;;
54923;SDS011;40825;52.270;20.984;2024-01-10T10:46:13;40.40;;;17.70;;
54923;SDS011;40825;52.270;20.984;2024-01-10T10:48:42;47.10;;;18.80;;
54923;SDS011;40825;52.270;20.984;2024-01-10T10:51:09;44.10;;;16.90;;
54923;SDS011;40825;52.270;20.984;2024-01-10T10:53:48;41.80;;;15.20;;
54923;SDS011;40825;52.270;20.984;2024-01-10T10:56:15;39.60;;;17.00;;
54923;SDS011;40825;52.270;20.984;2024-01-10T10:58:45;35.20;;;13.60;;
54923;SDS011;40825;52.270;20.984;2024-01-10T11:01:14;31.20;;;11.60;;
54923;SDS011;40825;52.270;20.984;2024-01-10T11:03:41;35.40;;;14.00;;
54923;SDS011;40825;52.270;20.984;2024-01-10T11:06:12;51.60;;;20.80;;
54923;SDS011;40825;52.270;20.984;2024-01-10T11:08:40;48.30;;;19.30;;
54923;SDS011;40825;52.270;20.984;2024-01-10T11:13:56;53.60;;;21.30;;
54923;SDS011;40825;52.270;20.984;2024-01-10T11:19:43;49.50;;;20.90;;
54923;SDS011;40825;52.270;20.984;2024-01-10T11:24:56;54.70;;;22.20;;
54923;SDS011;40825;52.270;20.984;2024-01-10T11:27:21;58.40;;;23.20;;
54923;SDS011;40825;52.270;20.984;2024-01-10T11:29:48;57.60;;;24.10;;
54923;SDS011;40825;52.270;20.984;2024-01-10T11:32:14;68.90;;;26.50;;
54923;SDS011;40825;52.270;20.984;2024-01-10T11:34:53;66.70;;;27.50;;
54923;SDS011;40825;52.270;20.984;2024-01-10T11:37:23;62.70;;;28.30;;
54923;SDS011;40825;52.270;20.984;2024-01-10T11:39:55;67.80;;;27.30;;
54923;SDS011;40825;52.270;20.984;2024-01-10T11:42:24;70.90;;;30.50;;
54923;SDS011;40825;52.270;20.984;2024-01-10T11:45:20;74.20;;;28.20;;
54923;SDS011;40825;52.270;20.984;2024-01-10T11:48:07;68.30;;;28.90;;
54923;SDS011;40825;52.270;20.984;2024-01-10T11:50:32;60.90;;;25.90;;
54923;SDS011;40825;52.270;20.984;2024-01-10T11:52:58;75.00;;;28.40;;
54923;SDS011;40825;52.270;20.984;2024-01-10T11:58:51;71.30;;;29.00;;
54923;SDS011;40825;52.270;20.984;2024-01-10T12:01:18;62.20;;;26.30;;
54923;SDS011;40825;52.270;20.984;2024-01-10T12:03:45;61.60;;;27.40;;
54923;SDS011;40825;52.270;20.984;2024-01-10T12:06:11;70.70;;;28.40;;
54923;SDS011;40825;52.270;20.984;2024-01-10T12:08:37;70.10;;;28.60;;
54923;SDS011;40825;52.270;20.984;2024-01-10T12:11:03;75.30;;;31.10;;
54923;SDS011;40825;52.270;20.984;2024-01-10T12:13:30;64.80;;;28.30;;
54923;SDS011;40825;52.270;20.984;2024-01-10T12:15:57;60.00;;;24.60;;
54923;SDS011;40825;52.270;20.984;2024-01-10T12:18:23;61.10;;;24.40;;
54923;SDS011;40825;52.270;20.984;2024-01-10T12:20:48;71.10;;;28.70;;
54923;SDS011;40825;52.270;20.984;2024-01-10T12:23:15;73.30;;;29.50;;
54923;SDS011;40825;52.270;20.984;2024-01-10T12:25:40;54.30;;;23.10;;
54923;SDS011;40825;52.270;20.984;2024-01-10T12:28:06;65.90;;;26.40;;
54923;SDS011;40825;52.270;20.984;2024-01-10T12:30:32;66.80;;;27.30;;
54923;SDS011;40825;52.270;20.984;2024-01-10T12:33:01;42.60;;;18.10;;
54923;SDS011;40825;52.270;20.984;2024-01-10T12:35:27;58.10;;;25.20;;
54923;SDS011;40825;52.270;20.984;2024-01-10T12:37:55;59.80;;;25.70;;
54923;SDS011;40825;52.270;20.984;2024-01-10T12:40:21;64.10;;;28.80;;
54923;SDS011;40825;52.270;20.984;2024-01-10T12:42:47;61.20;;;28.90;;
54923;SDS011;40825;52.270;20.984;2024-01-10T12:45:22;63.80;;;26.50;;
54923;SDS011;40825;52.270;20.984;2024-01-10T12:47:48;56.50;;;24.50;;
54923;SDS011;40825;52.270;20.984;2024-01-10T12:50:14;45.10;;;18.60;;
54923;SDS011;40825;52.270;20.984;2024-01-10T12:52:40;39.30;;;16.00;;
54923;SDS011;40825;52.270;20.984;2024-01-10T12:55:08;41.80;;;16.90;;
54923;SDS011;40825;52.270;20.984;2024-01-10T12:57:34;40.50;;;18.90;;
54923;SDS011;40825;52.270;20.984;2024-01-10T13:00:00;29.20;;;12.90;;
54923;SDS011;40825;52.270;20.984;2024-01-10T13:02:31;44.10;;;16.10;;
54923;SDS011;40825;52.270;20.984;2024-01-10T13:05:03;40.40;;;16.40;;
54923;SDS011;40825;52.270;20.984;2024-01-10T13:07:29;40.60;;;18.00;;
54923;SDS011;40825;52.270;20.984;2024-01-10T13:09:56;31.10;;;11.80;;
54923;SDS011;40825;52.270;20.984;2024-01-10T13:12:22;39.90;;;16.20;;
54923;SDS011;40825;52.270;20.984;2024-01-10T13:14:48;39.30;;;15.10;;
54923;SDS011;40825;52.270;20.984;2024-01-10T13:17:14;37.70;;;16.20;;
54923;SDS011;40825;52.270;20.984;2024-01-10T13:19:39;18.30;;;7.80;;
54923;SDS011;40825;52.270;20.984;2024-01-10T13:22:05;32.30;;;13.90;;
54923;SDS011;40825;52.270;20.984;2024-01-10T13:24:30;41.40;;;15.80;;
54923;SDS011;40825;52.270;20.984;2024-01-10T13:26:56;42.60;;;16.30;;
54923;SDS011;40825;52.270;20.984;2024-01-10T13:29:21;46.30;;;15.30;;
54923;SDS011;40825;52.270;20.984;2024-01-10T13:31:47;37.20;;;13.80;;
54923;SDS011;40825;52.270;20.984;2024-01-10T13:34:14;43.50;;;15.90;;
54923;SDS011;40825;52.270;20.984;2024-01-10T13:36:40;43.20;;;15.60;;
54923;SDS011;40825;52.270;20.984;2024-01-10T13:39:06;35.50;;;16.10;;
54923;SDS011;40825;52.270;20.984;2024-01-10T13:41:32;35.90;;;14.80;;
54923;SDS011;40825;52.270;20.984;2024-01-10T13:43:59;37.60;;;13.60;;
54923;SDS011;40825;52.270;20.984;2024-01-10T13:46:25;30.80;;;11.70;;
54923;SDS011;40825;52.270;20.984;2024-01-10T13:48:50;37.00;;;15.20;;
54923;SDS011;40825;52.270;20.984;2024-01-10T13:51:16;33.90;;;15.40;;
54923;SDS011;40825;52.270;20.984;2024-01-10T13:53:41;32.60;;;14.20;;
54923;SDS011;40825;52.270;20.984;2024-01-10T13:56:07;37.40;;;14.20;;
54923;SDS011;40825;52.270;20.984;2024-01-10T13:58:33;38.60;;;15.80;;
54923;SDS011;40825;52.270;20.984;2024-01-10T14:00:58;45.00;;;15.10;;
54923;SDS011;40825;52.270;20.984;2024-01-10T14:03:24;38.50;;;14.60;;
54923;SDS011;40825;52.270;20.984;2024-01-10T14:05:50;31.10;;;13.20;;
54923;SDS011;40825;52.270;20.984;2024-01-10T14:08:16;45.10;;;16.70;;
54923;SDS011;40825;52.270;20.984;2024-01-10T14:10:41;39.80;;;14.00;;
54923;SDS011;40825;52.270;20.984;2024-01-10T14:13:07;41.30;;;15.60;;
54923;SDS011;40825;52.270;20.984;2024-01-10T14:15:33;29.00;;;11.20;;
54923;SDS011;40825;52.270;20.984;2024-01-10T14:17:59;38.10;;;15.70;;
54923;SDS011;40825;52.270;20.984;2024-01-10T14:20:24;20.80;;;7.20;;
54923;SDS011;40825;52.270;20.984;2024-01-10T14:22:50;36.80;;;15.20;;
54923;SDS011;40825;52.270;20.984;2024-01-10T14:25:16;34.00;;;14.90;;